Time;durP1;ratioP1;P1;durP2;ratioP2;P2;SDS_P1;SDS_P2;PMS_P1;PMS_P2;Temp;Humidity;BMP_temperature;BMP_pressure;BME280_temperature;BME280_humidity;BME280_pressure;Samples;Min_cycle;Max_cycle;Signal;HPM_P1;HPM_P2
2022/07/04 00:00:19;;;;;;;4.38;1.30;;;14.40;99.90;;;;;;4882462;29;20109;-79
2022/07/04 00:02:46;;;;;;;2.40;1.38;;;14.40;99.90;;;;;;4881761;29;20052;-79
2022/07/04 00:05:12;;;;;;;4.53;1.73;;;14.30;99.90;;;;;;4896868;29;20080;-80
2022/07/04 00:07:39;;;;;;;2.88;1.50;;;14.30;99.90;;;;;;4883029;29;20121;-79
2022/07/04 00:10:06;;;;;;;1.98;1.23;;;14.30;99.90;;;;;;4882335;29;20056;-79
2022/07/04 00:12:33;;;;;;;2.10;1.45;;;14.30;99.90;;;;;;4881861;29;20509;-79
2022/07/04 00:15:00;;;;;;;1.48;1.02;;;14.30;99.90;;;;;;4881202;29;20556;-80
2022/07/04 00:17:25;;;;;;;4.32;1.27;;;14.30;99.90;;;;;;4882170;29;20128;-80
2022/07/04 00:19:51;;;;;;;3.10;1.30;;;14.20;99.90;;;;;;4882127;29;20094;-80
2022/07/04 00:22:17;;;;;;;2.15;1.20;;;14.30;99.90;;;;;;4882413;29;20490;-80
2022/07/04 00:24:42;;;;;;;1.98;1.35;;;14.20;99.90;;;;;;4882007;29;20052;-80
2022/07/04 00:27:09;;;;;;;3.05;1.45;;;14.20;99.90;;;;;;4881273;29;20048;-80
2022/07/04 00:29:34;;;;;;;2.53;1.35;;;14.20;99.90;;;;;;4881922;29;20128;-80
2022/07/04 00:32:01;;;;;;;2.80;1.30;;;14.10;99.90;;;;;;4882368;29;20192;-80
2022/07/04 00:34:29;;;;;;;3.85;1.45;;;14.10;99.90;;;;;;4881833;29;20501;-80
2022/07/04 00:36:54;;;;;;;2.17;1.40;;;14.10;99.90;;;;;;4882066;29;20494;-79
2022/07/04 00:39:20;;;;;;;2.72;1.17;;;14.00;99.90;;;;;;4881776;29;20132;-79
2022/07/04 00:41:46;;;;;;;3.17;1.98;;;14.20;99.90;;;;;;4882255;29;20081;-78
2022/07/04 00:44:13;;;;;;;3.72;1.55;;;14.00;99.90;;;;;;4881666;29;20458;-79
2022/07/04 00:46:40;;;;;;;2.10;1.63;;;14.00;99.90;;;;;;4882453;29;20113;-79
2022/07/04 00:49:06;;;;;;;4.22;1.55;;;14.00;99.90;;;;;;4880733;29;20397;-80
2022/07/04 00:51:32;;;;;;;4.45;1.55;;;14.00;99.90;;;;;;4881493;29;20052;-80
2022/07/04 00:53:59;;;;;;;3.38;1.50;;;14.10;99.90;;;;;;4882229;29;20064;-79
2022/07/04 00:56:26;;;;;;;2.13;1.40;;;14.00;99.90;;;;;;4880517;29;20045;-79
2022/07/04 00:58:53;;;;;;;2.85;1.63;;;13.90;99.90;;;;;;4880529;29;20108;-79
2022/07/04 01:01:22;;;;;;;5.43;1.60;;;13.90;99.90;;;;;;4880755;29;20132;-80
2022/07/04 01:03:49;;;;;;;3.03;1.60;;;13.90;99.90;;;;;;4881298;29;20125;-80
2022/07/04 01:06:18;;;;;;;3.25;1.65;;;13.90;99.90;;;;;;4881327;29;20052;-80
2022/07/04 01:08:44;;;;;;;4.30;1.58;;;14.00;99.90;;;;;;4880277;29;20045;-77
2022/07/04 01:11:11;;;;;;;2.35;1.85;;;13.90;99.90;;;;;;4880261;29;20056;-78
2022/07/04 01:13:37;;;;;;;2.67;1.52;;;13.90;99.90;;;;;;4879995;29;20517;-79
2022/07/04 01:16:03;;;;;;;5.80;1.85;;;13.80;99.90;;;;;;4881669;29;20084;-79
2022/07/04 01:18:30;;;;;;;4.55;1.92;;;13.90;99.90;;;;;;4881013;29;20128;-79
2022/07/04 01:20:56;;;;;;;5.00;1.70;;;13.90;99.90;;;;;;4881658;29;20070;-79
2022/07/04 01:23:23;;;;;;;3.47;1.80;;;13.80;99.90;;;;;;4881383;29;20450;-80
2022/07/04 01:25:50;;;;;;;2.85;1.77;;;13.80;99.90;;;;;;4880749;29;20057;-79
2022/07/04 01:28:18;;;;;;;6.13;1.98;;;13.80;99.90;;;;;;4880819;29;20068;-80
2022/07/04 01:30:44;;;;;;;3.83;2.15;;;13.80;99.90;;;;;;4880936;29;20144;-78
2022/07/04 01:33:09;;;;;;;3.20;1.60;;;13.70;99.90;;;;;;4879424;29;20131;-79
2022/07/04 01:35:35;;;;;;;3.75;1.95;;;13.80;99.90;;;;;;4879682;29;20136;-79
2022/07/04 01:38:01;;;;;;;4.63;2.10;;;13.60;99.90;;;;;;4879662;29;20057;-80
2022/07/04 01:40:27;;;;;;;3.83;1.65;;;13.60;99.90;;;;;;4880341;29;20088;-80
2022/07/04 01:42:53;;;;;;;3.63;1.92;;;13.60;99.90;;;;;;4879544;29;20048;-79
2022/07/04 01:45:18;;;;;;;3.47;1.98;;;13.60;99.90;;;;;;4879582;29;20057;-79
2022/07/04 01:47:44;;;;;;;3.45;2.10;;;13.60;99.90;;;;;;4880783;29;20550;-79
2022/07/04 01:50:12;;;;;;;4.38;2.05;;;13.60;99.90;;;;;;4879273;29;20049;-80
2022/07/04 01:52:39;;;;;;;3.20;2.15;;;13.60;99.90;;;;;;4880408;29;20053;-79
2022/07/04 01:55:06;;;;;;;5.13;2.00;;;13.60;99.90;;;;;;4879858;29;20474;-79
2022/07/04 01:57:31;;;;;;;4.47;1.92;;;13.60;99.90;;;;;;4881076;29;20071;-79
2022/07/04 02:02:41;;;;;;;5.40;2.67;;;13.50;99.90;;;;;;4880782;29;20060;-79
2022/07/04 02:05:07;;;;;;;4.95;1.95;;;13.50;99.90;;;;;;4880417;29;20044;-80
2022/07/04 02:07:33;;;;;;;3.92;1.98;;;13.50;99.90;;;;;;4880948;29;20120;-80
2022/07/04 02:09:59;;;;;;;2.70;2.10;;;13.50;99.90;;;;;;4880683;29;20128;-80
2022/07/04 02:15:09;;;;;;;3.25;1.95;;;13.40;99.90;;;;;;4880110;29;20060;-80
2022/07/04 02:17:34;;;;;;;5.10;2.00;;;13.40;99.90;;;;;;4880058;29;20057;-79
2022/07/04 02:20:00;;;;;;;4.72;2.10;;;13.40;99.90;;;;;;4879900;29;20056;-79
2022/07/04 02:22:26;;;;;;;3.20;1.90;;;13.40;99.90;;;;;;4879969;29;20041;-79
2022/07/04 02:24:52;;;;;;;2.45;2.03;;;13.40;99.90;;;;;;4878984;29;20141;-79
2022/07/04 02:27:18;;;;;;;2.33;1.50;;;13.30;99.90;;;;;;4879972;29;20100;-79
2022/07/04 02:29:43;;;;;;;2.95;1.67;;;13.30;99.90;;;;;;4879873;29;20045;-79
2022/07/04 02:32:10;;;;;;;3.03;1.60;;;13.30;99.90;;;;;;4879747;29;20096;-80
2022/07/04 02:34:35;;;;;;;3.40;1.73;;;13.30;99.90;;;;;;4879822;29;20136;-80
2022/07/04 02:37:01;;;;;;;3.42;1.77;;;13.30;99.90;;;;;;4880113;29;20455;-79
2022/07/04 02:39:30;;;;;;;7.05;1.70;;;13.30;99.90;;;;;;4879896;29;20041;-79
2022/07/04 02:41:55;;;;;;;2.42;1.58;;;13.30;99.90;;;;;;4895148;29;20110;-80
2022/07/04 02:44:21;;;;;;;3.53;1.90;;;13.30;99.90;;;;;;4880290;29;20048;-79
2022/07/04 02:46:47;;;;;;;2.45;1.63;;;13.20;99.90;;;;;;4864490;29;20053;-79
2022/07/04 02:49:12;;;;;;;3.15;1.88;;;13.20;99.90;;;;;;4879961;29;20049;-80
2022/07/04 02:51:38;;;;;;;2.75;2.10;;;13.20;99.90;;;;;;4880538;29;20076;-79
2022/07/04 02:54:04;;;;;;;6.13;2.65;;;13.20;99.90;;;;;;4880603;29;20064;-79
2022/07/04 02:56:29;;;;;;;4.20;2.63;;;13.20;99.90;;;;;;4879808;29;20469;-79
2022/07/04 02:58:55;;;;;;;7.57;3.72;;;13.30;99.90;;;;;;4880491;29;20049;-80
2022/07/04 03:01:24;;;;;;;4.20;2.55;;;13.20;99.90;;;;;;4880452;29;20052;-79
2022/07/04 03:03:49;;;;;;;4.82;3.28;;;13.20;99.90;;;;;;4879662;29;20049;-79
2022/07/04 03:06:15;;;;;;;4.78;2.88;;;13.20;99.90;;;;;;4894112;29;20052;-81
2022/07/04 03:08:41;;;;;;;4.15;2.35;;;13.20;99.90;;;;;;4879680;29;20048;-81
2022/07/04 03:11:07;;;;;;;5.40;2.60;;;13.10;99.90;;;;;;4880521;29;20045;-79
2022/07/04 03:13:33;;;;;;;6.70;3.20;;;13.10;99.90;;;;;;4881971;29;20049;-79
2022/07/04 03:15:59;;;;;;;5.72;3.42;;;13.20;99.90;;;;;;4882177;29;20051;-80
2022/07/04 03:18:25;;;;;;;5.20;4.20;;;13.20;99.90;;;;;;4882694;29;20123;-79
2022/07/04 03:20:50;;;;;;;5.88;5.05;;;13.20;99.90;;;;;;4883852;29;20063;-79
2022/07/04 03:23:16;;;;;;;7.05;4.70;;;13.20;99.90;;;;;;4883271;29;20129;-79
2022/07/04 03:25:42;;;;;;;6.22;4.90;;;13.10;99.90;;;;;;4883260;29;20052;-79
2022/07/04 03:28:08;;;;;;;5.85;4.40;;;13.10;99.90;;;;;;4882725;29;20143;-79
2022/07/04 03:30:34;;;;;;;6.18;3.75;;;13.10;99.90;;;;;;4866597;29;20060;-80
2022/07/04 03:33:00;;;;;;;5.03;2.75;;;13.10;99.90;;;;;;4897819;29;20049;-80
2022/07/04 03:35:26;;;;;;;5.03;3.22;;;13.10;99.90;;;;;;4883066;29;20041;-80
2022/07/04 03:37:52;;;;;;;6.20;3.50;;;13.20;99.90;;;;;;4882775;29;20056;-80
2022/07/04 03:40:19;;;;;;;6.25;3.67;;;13.10;99.90;;;;;;4882703;29;20196;-80
2022/07/04 03:42:45;;;;;;;5.55;4.32;;;13.10;99.90;;;;;;4882676;29;20123;-79
2022/07/04 03:45:11;;;;;;;7.95;5.03;;;13.10;99.90;;;;;;4882040;29;20198;-80
2022/07/04 03:47:39;;;;;;;5.80;5.05;;;13.10;99.90;;;;;;4882653;29;20056;-80
2022/07/04 03:50:05;;;;;;;8.60;5.10;;;13.10;99.90;;;;;;4881887;29;20049;-80
2022/07/04 03:52:31;;;;;;;7.55;5.90;;;13.10;99.90;;;;;;4881165;29;20609;-80
2022/07/04 03:54:57;;;;;;;7.80;5.80;;;13.10;99.90;;;;;;4882971;29;20131;-80
2022/07/04 03:57:22;;;;;;;6.45;5.00;;;13.20;99.90;;;;;;4882905;29;20049;-80
2022/07/04 03:59:48;;;;;;;6.88;4.75;;;13.20;99.90;;;;;;4881267;29;20053;-80
2022/07/04 04:02:14;;;;;;;6.35;3.63;;;13.20;99.90;;;;;;4882377;29;20041;-80
2022/07/04 04:07:24;;;;;;;5.75;3.63;;;13.20;99.90;;;;;;4882149;29;20053;-80
2022/07/04 04:09:49;;;;;;;6.13;3.33;;;13.20;99.90;;;;;;4881338;29;20470;-80
2022/07/04 04:12:15;;;;;;;7.20;3.88;;;13.20;99.90;;;;;;4882260;29;20435;-80
2022/07/04 04:14:41;;;;;;;4.88;3.83;;;13.20;99.90;;;;;;4882097;29;20105;-80
2022/07/04 04:17:07;;;;;;;7.13;4.28;;;13.30;99.90;;;;;;4882098;29;20053;-80
2022/07/04 04:19:33;;;;;;;8.75;4.30;;;13.30;99.90;;;;;;4880673;29;20105;-80
2022/07/04 04:21:59;;;;;;;9.57;4.57;;;13.40;99.90;;;;;;4881861;29;20132;-80
2022/07/04 04:24:24;;;;;;;7.15;3.97;;;13.30;99.90;;;;;;4881333;29;20059;-80
2022/07/04 04:26:50;;;;;;;8.48;4.10;;;13.30;99.90;;;;;;4880780;29;20053;-79
2022/07/04 04:29:16;;;;;;;9.63;4.18;;;13.40;99.90;;;;;;4880817;29;20560;-80
2022/07/04 04:31:41;;;;;;;7.82;4.13;;;13.40;99.90;;;;;;4881140;29;20056;-80
2022/07/04 04:34:07;;;;;;;8.00;4.15;;;13.40;99.90;;;;;;4865672;29;20509;-80
2022/07/04 04:36:33;;;;;;;10.43;5.20;;;13.40;99.90;;;;;;4881795;29;20048;-79
2022/07/04 04:38:59;;;;;;;5.45;4.20;;;13.40;99.90;;;;;;4881664;29;20105;-79
2022/07/04 04:41:24;;;;;;;5.65;4.00;;;13.40;99.90;;;;;;4880417;29;20136;-80
2022/07/04 04:43:50;;;;;;;7.78;4.50;;;13.50;99.90;;;;;;4881548;29;20489;-80
2022/07/04 04:46:16;;;;;;;7.28;4.20;;;13.50;99.90;;;;;;4880595;29;20053;-80
2022/07/04 04:48:42;;;;;;;5.60;4.63;;;13.60;99.90;;;;;;4895836;29;20441;-79
2022/07/04 04:51:07;;;;;;;6.40;4.82;;;13.50;99.90;;;;;;4880420;29;20052;-80
2022/07/04 04:53:33;;;;;;;5.10;4.38;;;13.60;99.90;;;;;;4881706;29;20205;-79
2022/07/04 04:55:59;;;;;;;6.95;4.50;;;13.60;99.90;;;;;;4881855;29;20079;-82
2022/07/04 04:58:27;;;;;;;5.28;4.43;;;13.50;99.90;;;;;;4881115;29;20056;-80
2022/07/04 05:00:53;;;;;;;4.82;4.07;;;13.70;99.90;;;;;;4881379;29;20051;-80
2022/07/04 05:03:19;;;;;;;6.47;4.47;;;13.70;99.90;;;;;;4880164;29;20450;-80
2022/07/04 05:05:45;;;;;;;5.68;4.35;;;13.70;99.90;;;;;;4880327;29;20454;-80
2022/07/04 05:08:14;;;;;;;5.75;3.97;;;13.80;99.90;;;;;;4880173;29;20136;-80
2022/07/04 05:10:40;;;;;;;7.47;4.53;;;13.90;99.90;;;;;;4880173;29;20053;-80
2022/07/04 05:13:06;;;;;;;7.13;5.15;;;13.80;99.90;;;;;;4879921;29;20516;-81
2022/07/04 05:15:33;;;;;;;4.32;3.60;;;13.90;99.90;;;;;;4880666;29;20053;-81
2022/07/04 05:17:58;;;;;;;8.32;5.05;;;14.00;99.90;;;;;;4880929;29;20081;-81
2022/07/04 05:20:24;;;;;;;7.32;4.55;;;14.00;99.90;;;;;;4880899;29;20057;-81
2022/07/04 05:22:50;;;;;;;6.53;4.57;;;14.00;99.90;;;;;;4880671;29;20053;-80
2022/07/04 05:25:16;;;;;;;5.90;4.18;;;14.10;99.90;;;;;;4880628;29;20064;-81
2022/07/04 05:27:42;;;;;;;5.60;4.32;;;14.10;99.90;;;;;;4880835;29;20064;-81
2022/07/04 05:30:08;;;;;;;4.90;4.38;;;14.20;99.90;;;;;;4880817;29;20045;-80
2022/07/04 05:32:37;;;;;;;7.47;4.95;;;14.20;99.90;;;;;;4879776;29;20045;-81
2022/07/04 05:35:03;;;;;;;6.50;4.88;;;14.30;99.90;;;;;;4880340;29;20060;-81
2022/07/04 05:37:29;;;;;;;7.07;5.05;;;14.30;99.90;;;;;;4880632;29;20406;-80
2022/07/04 05:39:55;;;;;;;6.70;4.63;;;14.40;99.90;;;;;;4864218;29;20053;-81
2022/07/04 05:42:20;;;;;;;5.82;5.22;;;14.50;99.90;;;;;;4881601;29;20474;-81
2022/07/04 05:44:46;;;;;;;5.90;4.65;;;14.50;99.90;;;;;;4879348;29;20497;-80
2022/07/04 05:47:15;;;;;;;8.98;4.97;;;14.60;99.90;;;;;;4880454;29;20045;-80
2022/07/04 05:49:40;;;;;;;9.32;5.50;;;14.60;99.90;;;;;;4880478;29;20045;-80
2022/07/04 05:52:06;;;;;;;7.40;4.68;;;14.70;99.90;;;;;;4880224;29;20205;-80
2022/07/04 05:54:32;;;;;;;5.45;4.85;;;14.80;99.90;;;;;;4880416;29;20093;-80
2022/07/04 05:56:58;;;;;;;6.13;4.82;;;14.80;99.90;;;;;;4881109;29;20048;-80
2022/07/04 05:59:24;;;;;;;7.43;4.63;;;15.00;99.90;;;;;;4880376;29;20395;-80
2022/07/04 06:01:49;;;;;;;6.18;4.97;;;15.10;99.90;;;;;;4880548;29;20045;-81
2022/07/04 06:04:15;;;;;;;12.10;5.10;;;15.20;99.90;;;;;;4878741;29;20049;-81
2022/07/04 06:06:41;;;;;;;7.68;5.55;;;15.20;99.90;;;;;;4880199;29;20052;-79
2022/07/04 06:09:07;;;;;;;8.00;4.75;;;15.40;99.90;;;;;;4880630;29;20550;-79
2022/07/04 06:11:34;;;;;;;8.75;5.15;;;15.30;99.90;;;;;;4880055;29;20137;-80
2022/07/04 06:14:00;;;;;;;7.45;4.63;;;15.40;99.90;;;;;;4880074;29;20068;-80
2022/07/04 06:16:26;;;;;;;6.68;4.85;;;15.40;99.90;;;;;;4880108;29;20048;-81
2022/07/04 06:18:51;;;;;;;7.90;5.00;;;15.50;99.90;;;;;;4878762;29;20076;-81
2022/07/04 06:21:17;;;;;;;7.15;4.45;;;15.60;99.90;;;;;;4864334;29;20152;-81
2022/07/04 06:23:43;;;;;;;6.13;4.50;;;15.60;99.90;;;;;;4879962;29;20572;-81
2022/07/04 06:26:09;;;;;;;10.07;5.00;;;15.70;99.90;;;;;;4878995;29;20053;-81
2022/07/04 06:28:35;;;;;;;7.68;5.35;;;15.80;99.90;;;;;;4894341;29;20481;-80
2022/07/04 06:31:00;;;;;;;5.70;4.50;;;15.80;99.90;;;;;;4879872;29;20056;-80
2022/07/04 06:33:27;;;;;;;6.35;4.55;;;16.00;99.90;;;;;;4878305;29;20053;-79
2022/07/04 06:35:56;;;;;;;6.13;4.30;;;16.00;99.90;;;;;;4880088;29;20060;-79
2022/07/04 06:38:28;;;;;;;7.55;4.45;;;16.00;99.90;;;;;;4880169;29;20092;-80
2022/07/04 06:40:58;;;;;;;8.10;4.45;;;16.20;99.90;;;;;;4880630;29;20113;-80
2022/07/04 06:43:25;;;;;;;7.25;4.10;;;16.20;99.90;;;;;;4880406;29;20049;-79
2022/07/04 06:45:52;;;;;;;5.80;3.50;;;16.20;99.90;;;;;;4894734;29;20053;-79
2022/07/04 06:48:18;;;;;;;5.38;2.78;;;16.30;99.90;;;;;;4882459;29;20057;-73
2022/07/04 06:50:45;;;;;;;6.05;3.35;;;16.30;99.90;;;;;;4882933;29;20053;-80
2022/07/04 06:53:11;;;;;;;7.43;4.20;;;16.30;99.90;;;;;;4883724;29;20076;-80
2022/07/04 06:55:39;;;;;;;5.40;3.15;;;16.40;99.90;;;;;;4882586;29;20049;-79
2022/07/04 06:58:06;;;;;;;4.53;3.08;;;16.40;99.90;;;;;;4882737;29;20049;-79
2022/07/04 07:00:32;;;;;;;3.95;2.38;;;16.50;99.90;;;;;;4897878;29;20045;-78
2022/07/04 07:03:03;;;;;;;5.68;2.47;;;16.50;99.90;;;;;;4883496;29;20045;-81
2022/07/04 07:05:29;;;;;;;4.53;2.92;;;16.50;99.90;;;;;;4902816;29;20092;-79
2022/07/04 07:07:55;;;;;;;6.10;3.00;;;16.60;99.90;;;;;;4882503;29;20379;-79
2022/07/04 07:10:21;;;;;;;4.10;2.45;;;16.60;99.90;;;;;;4884168;29;20374;-79
2022/07/04 07:12:47;;;;;;;6.55;2.28;;;16.70;99.90;;;;;;4884080;29;20351;-79
2022/07/04 07:15:14;;;;;;;6.65;2.30;;;16.70;99.90;;;;;;4883643;29;20104;-77
2022/07/04 07:17:40;;;;;;;8.25;2.22;;;16.80;99.90;;;;;;4883231;29;20139;-76
2022/07/04 07:20:07;;;;;;;3.92;1.88;;;16.80;99.90;;;;;;4866768;29;20101;-77
2022/07/04 07:22:32;;;;;;;3.10;1.85;;;16.90;99.90;;;;;;4883026;29;20076;-77
2022/07/04 07:24:58;;;;;;;5.40;1.80;;;17.00;99.90;;;;;;4883150;29;20532;-77
2022/07/04 07:27:24;;;;;;;4.03;1.77;;;17.10;99.90;;;;;;4882168;29;20474;-78
2022/07/04 07:29:49;;;;;;;4.50;1.80;;;17.10;99.90;;;;;;4883172;29;20049;-78
2022/07/04 07:32:17;;;;;;;5.43;1.58;;;17.20;99.90;;;;;;4882865;29;20049;-81
2022/07/04 07:34:43;;;;;;;2.90;1.63;;;17.30;99.90;;;;;;4881971;29;20091;-79
2022/07/04 07:37:11;;;;;;;3.75;1.67;;;17.40;99.90;;;;;;4882563;29;20052;-75
2022/07/04 07:39:37;;;;;;;4.15;1.80;;;17.40;99.90;;;;;;4882861;29;20192;-79
2022/07/04 07:42:03;;;;;;;6.32;1.90;;;17.50;99.90;;;;;;4882771;29;20131;-79
2022/07/04 07:44:29;;;;;;;7.35;1.85;;;17.60;99.90;;;;;;4882843;29;20184;-77
2022/07/04 07:46:54;;;;;;;4.45;1.80;;;17.60;99.90;;;;;;4883195;29;20144;-79
2022/07/04 07:49:20;;;;;;;5.97;1.95;;;17.70;99.90;;;;;;4882666;29;20049;-81
2022/07/04 07:51:46;;;;;;;5.05;2.03;;;17.70;99.90;;;;;;4882634;29;20053;-81
2022/07/04 07:54:11;;;;;;;6.88;1.70;;;17.70;99.90;;;;;;4881490;29;20057;-80
2022/07/04 07:56:37;;;;;;;7.75;2.05;;;17.80;99.90;;;;;;4882260;29;20060;-81
2022/07/04 07:59:03;;;;;;;3.45;1.23;;;17.80;99.90;;;;;;4882227;29;20080;-81
2022/07/04 08:01:28;;;;;;;4.28;1.35;;;17.90;99.90;;;;;;4866850;29;20057;-81
2022/07/04 08:06:41;;;;;;;3.05;1.48;;;18.00;99.90;;;;;;4882499;29;20052;-81
2022/07/04 08:09:08;;;;;;;5.13;1.67;;;18.00;99.90;;;;;;4866750;29;20049;-81
2022/07/04 08:11:34;;;;;;;3.67;1.38;;;17.90;99.90;;;;;;4881176;29;20395;-81
2022/07/04 08:13:59;;;;;;;2.42;1.23;;;17.90;99.90;;;;;;4882512;29;20052;-79
2022/07/04 08:16:25;;;;;;;5.15;1.35;;;17.90;99.90;;;;;;4882348;29;20053;-79
2022/07/04 08:18:51;;;;;;;4.63;1.73;;;18.00;99.90;;;;;;4882495;29;20565;-79
2022/07/04 08:21:16;;;;;;;5.88;1.67;;;18.10;99.90;;;;;;4882274;29;20053;-78
2022/07/04 08:23:42;;;;;;;6.47;1.30;;;18.20;99.90;;;;;;4896522;29;20049;-79
2022/07/04 08:26:08;;;;;;;5.95;1.80;;;18.40;99.90;;;;;;4896562;29;20060;-79
2022/07/04 08:28:33;;;;;;;4.38;1.50;;;18.40;99.90;;;;;;4882567;29;20484;-79
2022/07/04 08:31:00;;;;;;;4.07;1.00;;;18.50;99.90;;;;;;4881948;29;20056;-79
2022/07/04 08:33:26;;;;;;;3.45;0.98;;;18.50;99.90;;;;;;4880479;29;20123;-80
2022/07/04 08:35:53;;;;;;;2.33;0.98;;;18.60;99.90;;;;;;4880452;29;20069;-81
2022/07/04 08:38:20;;;;;;;2.55;0.85;;;18.70;99.90;;;;;;4881913;29;20399;-78
2022/07/04 08:40:47;;;;;;;3.17;0.90;;;18.70;99.90;;;;;;4881794;29;20120;-79
2022/07/04 08:43:14;;;;;;;3.25;0.90;;;18.70;99.90;;;;;;4881742;29;20124;-79
2022/07/04 08:45:41;;;;;;;4.93;0.80;;;18.80;99.90;;;;;;4879966;29;20049;-81
2022/07/04 08:48:09;;;;;;;2.65;1.08;;;18.70;99.90;;;;;;4879881;29;20071;-75
2022/07/04 08:50:48;;;;;;;2.53;0.80;;;18.60;99.90;;;;;;4880539;29;20052;-78
2022/07/04 08:53:19;;;;;;;2.65;0.90;;;18.50;99.90;;;;;;4881895;29;20065;-76
2022/07/04 08:58:33;;;;;;;2.92;1.08;;;18.40;99.90;;;;;;4881039;29;20622;-79
2022/07/04 09:01:00;;;;;;;3.50;0.88;;;18.30;99.90;;;;;;4880811;29;20056;-75
2022/07/04 09:03:27;;;;;;;5.88;1.23;;;18.30;99.90;;;;;;4880926;29;20049;-75
2022/07/04 09:05:54;;;;;;;3.72;1.00;;;18.30;99.90;;;;;;4895270;29;20049;-75
2022/07/04 09:08:20;;;;;;;2.13;0.95;;;18.30;99.90;;;;;;4879474;29;20065;-77
2022/07/04 09:10:47;;;;;;;3.22;1.05;;;18.20;99.90;;;;;;4880502;29;20390;-73
2022/07/04 09:13:14;;;;;;;5.57;1.23;;;18.20;99.90;;;;;;4880191;29;20061;-75
2022/07/04 09:15:42;;;;;;;2.03;1.00;;;18.20;99.90;;;;;;4882191;29;20108;-75
2022/07/04 09:18:20;;;;;;;2.30;0.85;;;18.10;99.90;;;;;;4884436;29;20108;-76
2022/07/04 09:20:49;;;;;;;2.60;1.10;;;18.10;99.90;;;;;;4897326;29;20045;-79
2022/07/04 09:23:41;;;;;;;5.05;1.90;;;18.10;99.90;;;;;;4884059;29;20472;-83
2022/07/04 09:26:21;;;;;;;3.78;0.98;;;18.00;99.90;;;;;;4875210;29;20060;-85
2022/07/04 09:28:52;;;;;;;3.13;0.75;;;17.70;99.90;;;;;;4881486;29;20053;-85
2022/07/04 09:31:20;;;;;;;2.08;0.85;;;17.50;99.90;;;;;;4880805;29;20056;-86
2022/07/04 09:33:57;;;;;;;3.10;0.85;;;17.10;99.90;;;;;;4884948;29;20045;-85
2022/07/04 09:36:25;;;;;;;2.25;1.20;;;17.10;99.90;;;;;;4882556;29;20059;-91
2022/07/04 09:39:15;;;;;;;4.70;1.45;;;17.00;99.90;;;;;;4885949;29;20060;-86
2022/07/04 09:41:51;;;;;;;3.05;1.10;;;17.00;99.90;;;;;;4888145;29;20049;-90
2022/07/04 09:44:17;;;;;;;2.20;0.95;;;17.00;99.90;;;;;;4887427;29;20044;-87
2022/07/04 09:46:43;;;;;;;3.78;1.13;;;17.00;99.90;;;;;;4889817;29;20057;-87
2022/07/04 09:49:10;;;;;;;2.45;1.05;;;17.20;99.90;;;;;;4884566;29;20045;-86
2022/07/04 09:51:43;;;;;;;2.67;1.20;;;17.30;99.90;;;;;;4898533;29;20056;-86
2022/07/04 09:54:19;;;;;;;2.25;1.10;;;17.40;99.90;;;;;;4882186;29;20065;-88
2022/07/04 09:56:49;;;;;;;1.40;0.75;;;17.40;99.90;;;;;;4884148;29;20078;-87
2022/07/04 09:59:15;;;;;;;1.85;0.80;;;17.50;99.90;;;;;;4885888;29;20116;-86
2022/07/04 10:01:41;;;;;;;1.67;0.93;;;17.50;99.90;;;;;;4884587;29;20095;-89
2022/07/04 10:04:08;;;;;;;2.20;0.95;;;17.60;99.90;;;;;;4883677;29;20124;-82
2022/07/04 10:06:37;;;;;;;1.98;0.80;;;17.70;99.90;;;;;;4884362;29;20049;-84
2022/07/04 10:09:08;;;;;;;3.53;0.93;;;17.70;99.90;;;;;;4882018;29;20053;-77
2022/07/04 10:11:34;;;;;;;1.45;0.90;;;17.70;99.90;;;;;;4880357;29;20120;-82
2022/07/04 10:14:00;;;;;;;1.88;0.80;;;17.70;99.90;;;;;;4880489;29;20080;-85
2022/07/04 10:16:27;;;;;;;3.13;1.00;;;17.80;99.90;;;;;;4883768;29;20445;-83
2022/07/04 10:18:54;;;;;;;1.23;1.02;;;17.90;99.90;;;;;;4864174;29;20051;-77
2022/07/04 10:21:20;;;;;;;0.90;0.80;;;18.00;99.90;;;;;;4878803;29;20052;-81
2022/07/04 10:23:48;;;;;;;2.85;0.90;;;18.10;99.90;;;;;;4895517;29;20041;-79
2022/07/04 10:26:19;;;;;;;1.85;0.70;;;18.20;99.90;;;;;;4881170;29;20476;-81
2022/07/04 10:28:49;;;;;;;2.42;1.05;;;18.30;99.90;;;;;;4885020;29;20132;-81
2022/07/04 10:31:16;;;;;;;1.90;0.70;;;18.50;99.90;;;;;;4898004;29;20112;-81
2022/07/04 10:33:43;;;;;;;2.15;0.60;;;18.60;99.90;;;;;;4879865;29;20052;-80
2022/07/04 10:36:20;;;;;;;1.10;0.80;;;18.60;99.90;;;;;;4879594;29;20105;-80
2022/07/04 10:38:50;;;;;;;6.72;0.90;;;18.60;99.90;;;;;;4893212;29;20506;-77
2022/07/04 10:41:18;;;;;;;1.23;0.80;;;18.70;99.90;;;;;;4879220;29;20057;-80
2022/07/04 10:43:53;;;;;;;1.17;0.70;;;18.70;99.90;;;;;;4863907;29;20081;-80
2022/07/04 10:46:27;;;;;;;3.50;0.85;;;18.70;99.90;;;;;;4878361;29;20061;-79
2022/07/04 10:49:17;;;;;;;2.38;0.73;;;18.80;99.90;;;;;;4878284;29;20569;-79
2022/07/04 10:51:48;;;;;;;2.15;0.73;;;18.90;99.90;;;;;;4878939;29;20053;-80
2022/07/04 10:54:32;;;;;;;2.85;0.80;;;19.00;99.90;;;;;;4877734;29;20053;-77
2022/07/04 10:57:09;;;;;;;1.95;0.80;;;19.10;99.90;;;;;;4894163;29;20410;-77
2022/07/04 10:59:35;;;;;;;1.95;0.70;;;19.10;99.90;;;;;;4879362;29;20055;-81
2022/07/04 11:02:06;;;;;;;1.05;0.63;;;19.20;99.90;;;;;;4878939;29;20156;-81
2022/07/04 11:04:56;;;;;;;1.20;0.60;;;19.30;99.90;;;;;;4878048;29;20053;-77
2022/07/04 11:07:38;;;;;;;3.42;0.70;;;19.30;99.90;;;;;;4878511;29;20061;-77
2022/07/04 11:10:13;;;;;;;1.65;0.60;;;19.50;99.90;;;;;;4879165;29;20132;-81
2022/07/04 11:12:53;;;;;;;1.20;0.75;;;19.60;99.90;;;;;;4878957;29;20051;-81
2022/07/04 11:15:26;;;;;;;1.23;0.60;;;19.70;99.90;;;;;;4878329;29;20053;-78
2022/07/04 11:17:53;;;;;;;2.25;0.73;;;19.70;99.90;;;;;;4878169;29;20180;-76
2022/07/04 11:20:21;;;;;;;1.02;0.70;;;19.70;99.90;;;;;;4879368;29;20128;-75
2022/07/04 11:22:47;;;;;;;1.02;0.68;;;19.70;99.90;;;;;;4879303;29;20155;-76
2022/07/04 11:25:13;;;;;;;1.55;0.80;;;19.70;99.90;;;;;;4879710;29;20192;-77
2022/07/04 11:27:39;;;;;;;2.80;0.80;;;19.80;99.90;;;;;;4862262;29;20056;-79
2022/07/04 11:30:06;;;;;;;4.00;0.70;;;19.90;99.90;;;;;;4879079;29;20109;-77
2022/07/04 11:32:34;;;;;;;2.30;0.70;;;20.00;99.90;;;;;;4880895;29;20541;-78
2022/07/04 11:35:00;;;;;;;2.20;0.60;;;20.10;99.90;;;;;;4881449;29;20500;-77
2022/07/04 11:37:26;;;;;;;2.50;0.80;;;20.10;99.90;;;;;;4883217;29;20095;-78
2022/07/04 11:45:02;;;;;;;1.65;0.60;;;20.10;99.90;;;;;;4881111;29;20529;-77
2022/07/04 11:45:24;;;;;;;3.22;0.70;;;20.10;99.90;;;;;;4882820;29;20049;-78
2022/07/04 11:47:49;;;;;;;2.05;0.68;;;20.00;99.90;;;;;;4882556;29;20048;-76
2022/07/04 11:50:18;;;;;;;2.75;0.70;;;19.90;99.90;;;;;;4882657;29;20410;-82
2022/07/04 11:52:51;;;;;;;1.50;0.98;;;19.90;99.90;;;;;;4882624;29;20100;-80
2022/07/04 11:55:17;;;;;;;2.00;0.70;;;19.80;99.90;;;;;;4882562;29;20096;-79
2022/07/04 11:57:48;;;;;;;2.08;0.70;;;19.90;99.90;;;;;;4882642;29;20087;-78
2022/07/04 12:00:19;;;;;;;1.00;0.60;;;19.80;99.90;;;;;;4881773;29;20049;-81
2022/07/04 12:02:47;;;;;;;2.53;1.13;;;19.90;99.90;;;;;;4883308;29;20537;-76
2022/07/04 12:05:14;;;;;;;2.30;0.70;;;19.90;99.90;;;;;;4884535;29;20044;-77
2022/07/04 12:07:42;;;;;;;2.35;0.70;;;20.00;99.90;;;;;;4886064;29;20113;-75
2022/07/04 12:10:15;;;;;;;2.47;0.52;;;20.10;99.90;;;;;;4898260;29;20568;-78
2022/07/04 12:12:54;;;;;;;2.45;0.60;;;20.30;99.90;;;;;;4888618;29;20049;-74
2022/07/04 12:15:21;;;;;;;1.23;0.50;;;20.40;99.90;;;;;;4883249;29;20041;-74
2022/07/04 12:17:51;;;;;;;0.50;0.45;;;20.40;99.90;;;;;;4882929;29;20049;-75
2022/07/04 12:20:17;;;;;;;1.05;0.50;;;20.30;99.90;;;;;;4883232;29;20065;-74
2022/07/04 12:22:52;;;;;;;2.78;0.73;;;20.30;99.90;;;;;;4882243;29;20349;-76
2022/07/04 12:25:26;;;;;;;0.75;0.40;;;20.40;99.90;;;;;;4882223;29;20060;-77
2022/07/04 12:28:02;;;;;;;1.20;0.52;;;20.50;99.90;;;;;;4897856;29;20056;-78
2022/07/04 12:30:31;;;;;;;3.80;0.70;;;20.50;99.90;;;;;;4881673;29;20052;-77
2022/07/04 12:33:02;;;;;;;1.13;0.60;;;20.50;99.90;;;;;;4883704;29;20055;-76
2022/07/04 12:35:49;;;;;;;1.10;0.57;;;20.60;99.90;;;;;;4881421;29;20048;-77
2022/07/04 12:38:21;;;;;;;1.83;0.60;;;20.70;99.90;;;;;;4881654;29;20053;-76
2022/07/04 12:41:02;;;;;;;1.52;0.50;;;20.80;99.90;;;;;;4881254;29;20053;-74
2022/07/04 12:43:43;;;;;;;1.13;0.50;;;20.80;99.90;;;;;;4880296;29;20128;-75
2022/07/04 12:46:11;;;;;;;1.75;0.68;;;20.80;99.90;;;;;;4881312;29;20057;-77
2022/07/04 12:48:38;;;;;;;1.95;0.47;;;20.80;99.90;;;;;;4881458;29;20049;-76
2022/07/04 12:51:18;;;;;;;1.80;0.40;;;20.80;99.90;;;;;;4881016;29;20055;-74
2022/07/04 12:53:47;;;;;;;1.77;0.50;;;20.80;99.90;;;;;;4864307;29;20520;-77
2022/07/04 12:56:42;;;;;;;1.98;0.43;;;20.90;99.90;;;;;;4880971;29;20402;-78
2022/07/04 12:59:20;;;;;;;1.40;0.40;;;20.90;99.90;;;;;;4880622;29;20140;-77
2022/07/04 13:01:46;;;;;;;1.00;0.40;;;20.90;99.90;;;;;;4880465;29;20049;-75
2022/07/04 13:04:13;;;;;;;2.58;0.50;;;21.00;99.90;;;;;;4881225;29;20433;-74